Beatty, Nevada Weather observations

Data are for observation ending at time listed.
 Day   Time    Ave.   Ave.  Ave.  Vector   Max.   Stn.    Total    Solar   Ave.  
  of    of     Air    Rel.  Wind   Wind    Wind   Baro.  Precip.   Rad.    Soil  
Year   Day     Temp.  Hum.  Speed  Dir.    Gust   Pres.                    Temp. 
2016   (PST)    F      %     mph   deg.    mph     mb.     in.     W/m2     F   
------------------------------------------------------------------------------
 146    8:10   61.9    40    2.6   292      4.8   900.0    0.00     471    70.1
 146    8:20   63.6    38    1.2   110      2.9   900.0    0.00     467    70.1
 146    8:30   64.1    36    1.8   308      4.6   900.0    0.00     278    70.0
 146    8:40   63.4    37    1.4   244      3.5   900.0    0.00     198    70.0
 146    8:50   64.3    35    1.2   266      3.4   899.9    0.00     348    70.0
 146    9:00   65.8    33    2.6   195      5.2   899.8    0.00     619    69.9
 146    9:10   67.7    31    1.6   214      4.3   899.8    0.00     649    69.9
 146    9:20   68.1    30    2.9   348      8.0   899.8    0.00     738    69.9
 146    9:30   68.3    29    2.1   129      4.9   899.8    0.00     757    69.9
 146    9:40   69.4    27    3.0    14      8.9   899.6    0.00     747    69.8
 146    9:50   69.2    26    1.8   322      5.9   899.6    0.00     709    69.8
 146   10:00   70.6    24    3.4    81      7.6   899.5    0.00     810    69.7
 146   10:10   71.0    21    3.6   144      7.2   899.4    0.00     801    69.7
 146   10:20   71.9    21    2.8   109      9.3   899.3    0.00     810    69.7
 146   10:30   71.7    22    2.3    50      8.8   899.3    0.00     833    69.7
 146   10:40   71.3    21    4.7   163     10.2   899.2    0.00     854    69.7
 146   10:50   72.1    21    2.9   188      9.1   899.2    0.00     830    69.7
 146   11:00   72.0    21    2.4   280      7.1   899.1    0.00     752    69.7
 146   11:10   72.7    20    2.3   321      6.1   899.0    0.00     861    69.7
 146   11:20   73.0    20    4.1   219      9.1   898.8    0.00     879    69.7
 146   11:30   72.6    20    3.9   210     10.2   898.7    0.00     859    69.7
 146   11:40   73.3    20    8.0   162     14.0   898.6    0.00     875    69.8
 146   11:50   73.1    20    4.1   156      9.3   898.6    0.00     842    69.8
 146   12:00   74.3    19    5.4   179     13.0   898.4    0.00     862    69.9
 146   12:10   73.9    20    5.8   210     13.8   898.3    0.00     878    69.9
 146   12:20   73.8    20    6.2   203     14.8   898.2    0.00     641    70.0
 146   12:30   73.8    20    7.5   177     14.0   898.1    0.00     776    70.1
 146   12:40   74.0    19    5.1   181     13.2   898.0    0.00     573    70.1
 146   12:50   73.2    20    5.4   169     14.5   898.0    0.00     241    70.2
 146   13:00   71.7    21    7.9   206     13.0   897.9    0.00     282    70.3
 146   13:10   71.4    21    5.3   216     13.4   897.8    0.00     232    70.4
 146   13:20   71.1    21    6.6   184     11.3   897.8    0.00     115    70.4
 146   13:30   71.0    21    2.0   208      4.8   897.9    0.00      65    70.6
 146   13:40   68.8    26    6.5    97     16.3   898.2    0.00      39    70.7
 146   13:50   66.8    32    6.1    76     17.8   898.2    0.00      25    70.8
 146   14:00   65.5    30    8.1    82     16.4   898.4    0.00      23    70.9
 146   14:10   66.1    28   11.0   138     28.1   898.7    0.00      29    71.0
 146   14:20   63.8    34    5.8   287     14.8   898.4    0.01      40    71.1
 146   14:30   63.9    34    4.1   257      9.8   898.4    0.00      45    71.1
 146   14:40   63.6    36    4.6   346     11.4   898.7    0.00      64    71.2
 146   14:50   64.1    36    3.8   320     13.8   898.8    0.00      89    71.2
 146   15:00   63.6    36    5.2   303     13.4   898.7    0.00      79    71.3
 146   15:10   63.4    35    5.2   285     12.9   898.6    0.00      80    71.4
 146   15:20   63.1    36    4.1   278     10.2   898.5    0.00     109    71.4
 146   15:30   63.8    35    4.5   317     10.5   898.4    0.00     121    71.5
 146   15:40   63.9    33    5.3   304     12.1   898.6    0.00     100    71.6
 146   15:50   63.8    34    5.5   304     15.2   898.8    0.00      81    71.7
 146   16:00   63.7    35    5.1   304     11.8   899.0    0.00      74    71.7
 146   16:10   63.1    38    3.9   311      9.2   899.1    0.00      79    71.7
 146   16:20   62.9    36    4.6   307     11.2   899.2    0.00      75    71.8
 146   16:30   61.8    41    4.9   318     13.3   899.3    0.00      59    71.8
 146   16:40   61.2    42    5.5   331     13.7   899.2    0.00      53    71.8
 146   16:50   61.3    41    4.5   320     13.2   899.2    0.00      46    71.8
 146   17:00   61.7    39    2.2   312      8.8   899.2    0.00      50    71.8
 146   17:10   62.0    37    3.1   312     14.9   899.4    0.00      70    71.9
 146   17:20   62.2    36    3.7   318     12.1   899.5    0.00     108    71.9
 146   17:30   62.7    36    3.5    91      9.5   899.5    0.00     154    71.9
 146   17:40   63.5    35    3.6   151      6.7   899.4    0.00     229    71.9
 146   17:50   65.0    32    2.5    27      5.6   899.3    0.00     194    71.9
 146   18:00   65.2    32    2.0    52      4.7   899.4    0.00     121    71.9
 146   18:10   64.7    32    1.8    83      6.6   899.5    0.00      99    71.9
 146   18:20   65.8    31    2.3    67      5.2   899.4    0.00      97    71.9
 146   18:30   65.2    32    2.5    51      5.7   899.5    0.00      45    71.9
 146   18:40   63.9    34    3.4    35      8.3   899.5    0.00      32    71.9
 146   18:50   62.7    37    5.0    11     10.0   899.6    0.00      22    71.9
 146   19:00   62.1    39    4.2    24      9.9   899.7    0.00       6    71.9
 146   19:10   61.7    40    4.2    16      8.0   899.7    0.00       1    71.8
 146   19:20   61.4    40    5.0     4      9.9   899.6    0.00       0    71.8
 146   19:30   61.1    40    5.1   360      9.4   899.6    0.00       0    71.8
 146   19:40   60.7    41    6.3     5      9.7   899.6    0.00       0    71.8
 146   19:50   60.6    42    7.3     7     10.7   899.6    0.00       0    71.8
 146   20:00   60.6    43    8.0     7     12.6   899.7    0.00       0    71.7
 146   20:10   60.4    43    7.6     8     12.4   899.8    0.00       0    71.7
 146   20:20   60.1    43    8.2     6     11.2   899.9    0.00       0    71.7
 146   20:30   60.0    43    6.5     6     11.6   899.9    0.00       0    71.7
 146   20:40   59.8    42    4.0    15      7.1   899.9    0.00       0    71.7
 146   20:50   59.5    43    2.2    51      5.3   899.9    0.00       0    71.7
 146   21:00   58.9    44    1.9    47      4.6   899.9    0.00       0    71.6
 146   21:10   58.6    44    2.9   358      4.8   900.0    0.00       0    71.6
 146   21:20   58.5    44    3.6    13      7.9   900.0    0.00       0    71.5
 146   21:30   59.4    43    3.4    33      7.3   900.0    0.00       0    71.5
 146   21:40   60.5    40    3.5    19      7.7   900.0    0.00       0    71.5
 146   21:50   60.7    41    4.9    19     10.7   900.1    0.00       0    71.5
 146   22:00   59.9    43    4.9    35     10.8   900.1    0.00       0    71.4
 146   22:10   59.1    45    5.1    28     10.3   900.2    0.00       0    71.4
 146   22:20   59.3    46    7.6    14     16.3   900.2    0.00       0    71.4
 146   22:30   59.4    45    8.4     9     14.0   900.1    0.00       0    71.3
 146   22:40   59.4    45   10.1     6     20.2   900.0    0.00       0    71.3
 146   22:50   59.3    46   10.8     8     18.6   900.0    0.00       0    71.3
 146   23:00   58.9    47    9.5     8     16.1   900.0    0.00       0    71.2
 146   23:10   58.9    48    9.8     9     17.6   900.0    0.00       0    71.2
 146   23:20   58.8    48   10.1     3     20.2   900.0    0.00       0    71.2
 146   23:30   59.1    48   11.8     5     19.8   899.9    0.00       0    71.1
 146   23:40   58.7    50   10.8     6     18.6   900.0    0.00       0    71.1
 146   23:50   58.4    50    9.4     9     19.0   900.0    0.00       0    71.1
 147    0:00   58.2    51    5.8    18     11.5   900.0    0.00       0    71.0
 147    0:10   56.1    56    3.5    23      6.6   900.1    0.00       0    71.0
 147    0:20   56.0    56    3.9    34     10.6   900.0    0.00       0    71.0
 147    0:30   55.8    57    4.5    27      9.3   899.9    0.00       0    70.9
 147    0:40   55.1    58    6.0    28     12.3   899.8    0.00       0    70.9
 147    0:50   54.4    60    4.7    53     11.2   899.9    0.00       0    70.8
 147    1:00   54.2    60    4.7    38     10.7   899.9    0.00       0    70.8
 147    1:10   54.4    59    4.3    60      9.1   900.0    0.00       0    70.7
 147    1:20   54.2    60    4.4    62      9.7   899.9    0.00       0    70.7
 147    1:30   55.4    56    3.9    46     10.3   899.9    0.00       0    70.6
 147    1:40   54.8    58    4.5    16     10.0   899.9    0.00       0    70.6
 147    1:50   53.3    62    4.8    11      9.3   899.8    0.00       0    70.6
 147    2:00   52.7    63    6.5   357      9.8   899.9    0.00       0    70.5
 147    2:10   52.9    62    4.4    31     11.0   899.9    0.00       0    70.5
 147    2:20   53.0    62    4.3    25      9.1   899.9    0.00       0    70.4
 147    2:30   53.1    62    5.5    15      9.3   900.0    0.00       0    70.3
 147    2:40   53.4    61    6.0     7     11.2   899.9    0.00       0    70.3
 147    2:50   53.0    62    5.7     7      9.9   899.8    0.00       0    70.2
 147    3:00   53.0    61    4.2    14     13.4   899.9    0.00       0    70.2
 147    3:10   53.2    61    5.0     1      9.9   899.9    0.00       0    70.2
 147    3:20   52.3    63    5.0     1      8.5   900.0    0.00       0    70.1
 147    3:30   52.1    64    5.5     0      9.0   900.0    0.00       0    70.1
 147    3:40   52.4    63    3.8     9     11.1   899.9    0.00       0    70.1
 147    3:50   52.9    61    3.8     6      8.0   900.1    0.00       0    70.0
 147    4:00   53.0    61    2.7    36      7.0   900.2    0.00       0    70.0
 147    4:10   53.3    60    2.9    58      8.5   900.3    0.00       0    69.9
 147    4:20   53.9    59    3.2    59      8.5   900.3    0.00       0    69.9
 147    4:30   53.5    60    4.4    22      8.6   900.4    0.00       0    69.8
 147    4:40   53.3    60    3.9    68     10.2   900.4    0.00       3    69.8
 147    4:50   53.8    59    3.0    60      8.0   900.5    0.00       6    69.7
 147    5:00   54.0    59    3.5    29      8.0   900.5    0.00      10    69.7
 147    5:10   52.6    63    4.4     2      8.6   900.7    0.00      13    69.6
 147    5:20   52.0    64    5.6     7      9.9   900.8    0.00      28    69.6
 147    5:30   53.4    60    6.6     1     14.0   900.8    0.00      91    69.5
 147    5:40   54.5    59    4.8    11     10.2   900.9    0.00     130    69.5
 147    5:50   56.8    55    4.0    33     11.1   900.9    0.00     165    69.5
 147    6:00   57.9    53    6.6    12     14.0   900.9    0.00     176    69.4
 147    6:10   58.1    52    7.0     8     14.9   901.0    0.00     106    69.4
 147    6:20   57.5    54    9.2     5     17.8   901.0    0.00      72    69.3
 147    6:30   57.6    54   10.0     5     16.4   900.9    0.00      50    69.3
 147    6:40   58.2    52    8.3    13     17.7   900.9    0.00      44    69.2
 147    6:50   58.4    52    5.6    34     12.5   900.9    0.00      54    69.2
 147    7:00   60.0    49    7.9     9     16.2   900.9    0.00      68    69.2
 147    7:10   60.3    47   10.4     3     18.3   900.9    0.00      74    69.1
 147    7:20   60.6    47    9.7     5     17.0   900.9    0.00      79    69.1
 147    7:30   60.8    47    8.7     4     16.2   900.9    0.00     122    69.0
 147    7:40   61.2    45   10.1     3     18.9   900.9    0.00     269    69.0
 147    7:50   61.6    44    9.4     2     16.4   900.9    0.00     473    69.0
 147    8:00   62.4    44    9.7     3     17.7   900.9    0.00     497    68.9

Return to Beatty, Nevada graphs page.


Western Regional Climate Center,wrcc@dri.edu